createdAt,value
2022-12-18T00:00:07.113Z,28.23
2022-12-18T00:02:42.946Z,26.43
2022-12-18T00:05:10.822Z,27.20
2022-12-18T00:07:38.796Z,26.30
2022-12-18T00:10:08.315Z,26.60
2022-12-18T00:12:36.061Z,25.40
2022-12-18T00:15:05.460Z,25.57
2022-12-18T00:17:33.275Z,25.00
2022-12-18T00:20:02.648Z,24.87
2022-12-18T00:22:30.336Z,24.90
2022-12-18T00:24:58.284Z,23.83
2022-12-18T00:27:25.987Z,23.80
2022-12-18T00:29:53.717Z,23.07
2022-12-18T00:32:21.527Z,23.10
2022-12-18T00:34:49.464Z,22.57
2022-12-18T00:37:20.476Z,24.73
2022-12-18T00:39:52.263Z,24.35
2022-12-18T00:42:40.156Z,21.00
2022-12-18T00:45:12.630Z,22.57
2022-12-18T00:47:41.367Z,22.80
2022-12-18T00:50:10.802Z,22.73
2022-12-18T00:52:43.531Z,23.53
2022-12-18T00:55:12.190Z,23.60
2022-12-18T00:57:40.052Z,23.13
2022-12-18T01:00:12.716Z,23.50
2022-12-18T01:02:41.556Z,22.80
2022-12-18T01:05:11.336Z,24.30
2022-12-18T01:07:39.249Z,22.43
2022-12-18T01:10:13.379Z,23.27
2022-12-18T01:12:41.610Z,24.67
2022-12-18T01:15:13.754Z,23.53
2022-12-18T01:17:41.825Z,23.10
2022-12-18T01:20:11.841Z,25.00
2022-12-18T01:22:39.899Z,24.23
2022-12-18T01:25:10.785Z,23.40
2022-12-18T01:27:38.556Z,23.80
2022-12-18T01:30:08.380Z,24.60
2022-12-18T01:32:36.152Z,23.80
2022-12-18T01:35:04.962Z,24.20
2022-12-18T01:37:32.821Z,23.07
2022-12-18T01:40:00.664Z,24.43
2022-12-18T01:42:29.835Z,25.03
2022-12-18T01:45:07.186Z,19.73
2022-12-18T01:47:41.568Z,19.33
2022-12-18T01:50:14.261Z,23.80
2022-12-18T01:52:44.743Z,24.30
2022-12-18T01:55:15.947Z,24.70
2022-12-18T01:57:45.960Z,20.83
2022-12-18T02:00:18.376Z,23.57
2022-12-18T02:02:48.210Z,20.37
2022-12-18T02:05:28.408Z,22.47
2022-12-18T02:08:10.611Z,23.30
2022-12-18T02:10:50.203Z,24.53
2022-12-18T02:13:33.285Z,23.17
2022-12-18T02:16:17.366Z,24.93
2022-12-18T02:18:52.157Z,23.47
2022-12-18T02:21:35.201Z,24.27
2022-12-18T02:24:30.453Z,23.17
2022-12-18T02:27:05.893Z,17.73
2022-12-18T02:29:39.815Z,14.18
2022-12-18T02:32:15.929Z,19.33
2022-12-18T02:34:46.974Z,18.13
2022-12-18T02:37:20.807Z,18.17
2022-12-18T02:39:54.033Z,19.13
2022-12-18T02:42:25.339Z,20.03
2022-12-18T02:44:56.724Z,20.57
2022-12-18T02:47:32.234Z,22.60
2022-12-18T02:50:14.427Z,21.37
2022-12-18T02:53:02.165Z,23.07
2022-12-18T02:55:54.425Z,22.93
2022-12-18T02:58:41.143Z,20.87
2022-12-18T03:01:24.282Z,21.50
2022-12-18T03:03:58.648Z,20.60
2022-12-18T03:06:33.027Z,20.93
2022-12-18T03:09:15.740Z,19.73
2022-12-18T03:12:12.280Z,17.07
2022-12-18T03:14:46.365Z,13.15
2022-12-18T03:17:24.303Z,12.40
2022-12-18T03:22:30.207Z,18.57
2022-12-18T03:25:03.979Z,18.97
2022-12-18T03:27:36.945Z,19.20
2022-12-18T03:33:09.899Z,20.80
2022-12-18T03:35:43.693Z,21.83
2022-12-18T03:38:13.818Z,21.07
2022-12-18T03:40:59.314Z,21.90
2022-12-18T03:43:43.869Z,21.83
2022-12-18T03:46:27.752Z,21.60
2022-12-18T03:49:09.277Z,20.70
2022-12-18T03:51:45.866Z,17.30
2022-12-18T03:56:58.077Z,12.38
2022-12-18T03:59:29.978Z,10.93
2022-12-18T04:02:04.045Z,8.23
2022-12-18T04:04:35.662Z,11.57
2022-12-18T04:07:07.251Z,9.83
2022-12-18T04:09:42.594Z,9.10
2022-12-18T04:12:11.259Z,10.20
2022-12-18T04:14:39.444Z,10.77
2022-12-18T04:17:11.207Z,15.37
2022-12-18T04:19:39.016Z,16.90
2022-12-18T04:22:06.869Z,18.80
2022-12-18T04:24:41.456Z,18.63
2022-12-18T04:27:19.991Z,20.20
2022-12-18T04:29:50.767Z,18.60
2022-12-18T04:32:20.839Z,18.70
2022-12-18T04:34:49.796Z,18.57
2022-12-18T04:37:18.621Z,17.80
2022-12-18T04:39:47.012Z,18.57
2022-12-18T04:42:22.346Z,18.10
2022-12-18T04:44:50.423Z,16.73
2022-12-18T04:47:18.219Z,12.67
2022-12-18T04:49:47.343Z,10.23
2022-12-18T04:52:15.453Z,10.60
2022-12-18T04:54:43.182Z,11.33
2022-12-18T04:57:11.035Z,11.57
2022-12-18T04:59:38.838Z,11.43
2022-12-18T05:02:06.831Z,13.10
2022-12-18T05:04:34.836Z,14.43
2022-12-18T05:07:04.213Z,16.87
2022-12-18T05:09:31.926Z,17.10
2022-12-18T05:11:59.627Z,16.93
2022-12-18T05:14:28.591Z,17.13
2022-12-18T05:17:00.645Z,10.43
2022-12-18T05:19:28.938Z,12.47
2022-12-18T05:21:56.711Z,11.10
2022-12-18T05:24:25.847Z,10.60
2022-12-18T05:26:53.864Z,8.87
2022-12-18T05:29:21.902Z,7.73
2022-12-18T05:31:49.722Z,8.90
2022-12-18T05:34:17.662Z,8.50
2022-12-18T05:36:45.460Z,7.97
2022-12-18T05:39:13.435Z,7.93
2022-12-18T05:41:42.816Z,7.57
2022-12-18T05:44:11.157Z,6.60
2022-12-18T05:46:46.357Z,8.03
2022-12-18T05:49:14.096Z,8.82
2022-12-18T05:51:41.762Z,5.07
2022-12-18T05:54:10.347Z,6.30
2022-12-18T05:56:38.090Z,4.97
2022-12-18T05:59:07.150Z,6.60
2022-12-18T06:01:35.020Z,7.20
2022-12-18T06:04:02.972Z,5.07
2022-12-18T06:06:31.146Z,7.50
2022-12-18T06:08:59.177Z,6.30
2022-12-18T06:11:28.050Z,7.87
2022-12-18T06:13:58.958Z,5.20
2022-12-18T06:16:30.240Z,7.60
2022-12-18T06:18:59.632Z,4.57
2022-12-18T06:21:28.860Z,6.00
2022-12-18T06:23:56.913Z,6.80
2022-12-18T06:26:28.257Z,7.40
2022-12-18T06:28:56.649Z,8.00
2022-12-18T06:31:24.800Z,6.60
2022-12-18T06:33:54.403Z,7.90
2022-12-18T06:36:22.659Z,7.53
2022-12-18T06:38:50.626Z,8.20
2022-12-18T06:41:21.751Z,9.03
2022-12-18T06:43:49.663Z,9.40
2022-12-18T06:46:17.638Z,9.40
2022-12-18T06:48:49.802Z,8.60
2022-12-18T06:51:21.263Z,9.80
2022-12-18T06:53:49.282Z,10.20
2022-12-18T06:56:17.294Z,10.57
2022-12-18T06:58:45.229Z,10.80
2022-12-18T07:01:15.168Z,8.33
2022-12-18T07:03:44.532Z,8.40
2022-12-18T07:06:16.860Z,8.83
2022-12-18T07:08:47.033Z,9.83
2022-12-18T07:11:15.934Z,10.57
2022-12-18T07:13:44.682Z,10.80
2022-12-18T07:16:22.324Z,12.20
2022-12-18T07:18:52.409Z,10.80
2022-12-18T07:21:21.490Z,10.77
2022-12-18T07:23:50.579Z,11.27
2022-12-18T07:26:22.465Z,9.80
2022-12-18T07:28:51.277Z,10.27
2022-12-18T07:31:22.504Z,8.23
2022-12-18T07:33:51.590Z,8.00
2022-12-18T07:36:20.080Z,6.30
2022-12-18T07:38:50.952Z,6.03
2022-12-18T07:41:19.672Z,7.17
2022-12-18T07:43:47.957Z,8.90
2022-12-18T07:46:17.325Z,8.83
2022-12-18T07:48:49.287Z,8.33
2022-12-18T07:51:19.535Z,7.77
2022-12-18T07:53:48.775Z,8.60
2022-12-18T07:56:27.842Z,8.77
2022-12-18T07:58:56.644Z,7.33
2022-12-18T08:01:25.251Z,11.03
2022-12-18T08:03:53.157Z,9.80
2022-12-18T08:06:23.294Z,8.63
2022-12-18T08:08:54.525Z,8.20
2022-12-18T08:11:27.114Z,9.87
2022-12-18T08:13:55.764Z,9.17
2022-12-18T08:16:24.192Z,10.17
2022-12-18T08:18:53.634Z,10.13
2022-12-18T08:21:24.787Z,9.60
2022-12-18T08:23:54.958Z,9.60
2022-12-18T08:26:26.664Z,8.80
2022-12-18T08:28:56.484Z,9.17
2022-12-18T08:31:25.967Z,6.70
2022-12-18T08:33:55.325Z,6.90
2022-12-18T08:36:24.884Z,6.10
2022-12-18T08:38:54.087Z,6.80
2022-12-18T08:41:23.973Z,6.53
2022-12-18T08:44:10.359Z,6.43
2022-12-18T08:49:09.189Z,8.37
2022-12-18T08:51:37.844Z,4.17
2022-12-18T08:54:07.187Z,8.17
2022-12-18T08:56:36.520Z,9.53
2022-12-18T08:59:05.214Z,7.90
2022-12-18T09:01:33.177Z,10.67
2022-12-18T09:04:02.195Z,8.53
2022-12-18T09:06:30.170Z,8.60
2022-12-18T09:08:58.476Z,7.83
2022-12-18T09:11:28.798Z,8.77
2022-12-18T09:14:00.760Z,9.47
2022-12-18T09:16:32.610Z,6.20
2022-12-18T09:19:02.315Z,8.53
2022-12-18T09:21:36.768Z,8.17
2022-12-18T09:24:08.514Z,8.40
2022-12-18T09:26:37.884Z,9.20
2022-12-18T09:29:10.988Z,6.37
2022-12-18T09:31:40.025Z,6.90
2022-12-18T09:34:08.340Z,7.87
2022-12-18T09:36:36.314Z,8.00
2022-12-18T09:39:08.096Z,6.60
2022-12-18T09:41:45.274Z,6.50
2022-12-18T09:44:26.355Z,7.07
2022-12-18T09:47:05.742Z,6.70
2022-12-18T09:49:41.540Z,5.50
2022-12-18T09:54:51.107Z,7.20
2022-12-18T09:57:23.418Z,7.45
2022-12-18T09:59:59.557Z,6.90
2022-12-18T10:02:32.357Z,6.13
2022-12-18T10:05:07.653Z,8.20
2022-12-18T10:07:50.839Z,7.88
2022-12-18T10:10:32.755Z,8.47
2022-12-18T10:13:13.515Z,7.87
2022-12-18T10:15:59.284Z,8.60
2022-12-18T10:18:57.663Z,6.25
2022-12-18T10:21:34.782Z,7.93
2022-12-18T10:24:15.935Z,9.23
2022-12-18T10:26:45.133Z,8.13
2022-12-18T10:29:16.668Z,9.03
2022-12-18T10:31:45.931Z,8.50
2022-12-18T10:34:15.145Z,9.13
2022-12-18T10:36:44.158Z,8.90
2022-12-18T10:39:18.778Z,8.27
2022-12-18T10:41:47.231Z,5.77
2022-12-18T10:44:21.054Z,8.03
2022-12-18T10:46:56.852Z,5.00
2022-12-18T10:49:28.957Z,5.25
2022-12-18T10:52:13.235Z,6.70
2022-12-18T10:54:48.718Z,7.80
2022-12-18T10:57:37.991Z,7.97
2022-12-18T11:00:29.776Z,7.93
2022-12-18T11:02:59.247Z,8.47
2022-12-18T11:05:31.730Z,5.83
2022-12-18T11:08:01.458Z,7.20
2022-12-18T11:10:33.717Z,7.67
2022-12-18T11:13:18.969Z,8.70
2022-12-18T11:15:47.515Z,7.83
2022-12-18T11:18:25.917Z,7.23
2022-12-18T11:20:58.964Z,7.90
2022-12-18T11:23:28.994Z,7.03
2022-12-18T11:26:03.246Z,6.40
2022-12-18T11:28:39.353Z,5.93
2022-12-18T11:31:26.931Z,7.90
2022-12-18T11:34:28.159Z,8.33
2022-12-18T11:36:55.593Z,6.57
2022-12-18T11:39:37.180Z,7.53
2022-12-18T11:42:13.743Z,5.23
2022-12-18T11:44:52.445Z,5.80
2022-12-18T11:47:31.545Z,7.83
2022-12-18T11:50:04.965Z,5.67
2022-12-18T11:52:40.434Z,6.90
2022-12-18T11:55:16.167Z,5.45
2022-12-18T11:57:54.614Z,5.65
2022-12-18T12:00:24.152Z,7.17
2022-12-18T12:03:23.209Z,5.33
2022-12-18T12:06:09.148Z,6.13
2022-12-18T12:08:58.432Z,7.57
2022-12-18T12:11:40.848Z,7.57
2022-12-18T12:14:36.038Z,5.57
2022-12-18T12:17:15.036Z,6.00
2022-12-18T12:19:55.908Z,7.90
2022-12-18T12:22:36.336Z,6.50
2022-12-18T12:25:27.049Z,6.13
2022-12-18T12:28:14.679Z,6.63
2022-12-18T12:30:55.244Z,7.70
2022-12-18T12:33:42.619Z,7.40
2022-12-18T12:36:24.962Z,6.70
2022-12-18T12:39:00.804Z,4.93
2022-12-18T12:41:53.981Z,6.57
2022-12-18T12:44:30.046Z,5.50
2022-12-18T12:47:07.994Z,7.17
2022-12-18T12:49:40.459Z,7.17
2022-12-18T12:52:15.889Z,5.47
2022-12-18T12:54:47.603Z,5.28
2022-12-18T12:57:27.500Z,7.73
2022-12-18T13:00:07.455Z,6.00
2022-12-18T13:02:49.099Z,7.00
2022-12-18T13:05:35.540Z,4.77
2022-12-18T13:08:07.867Z,7.05
2022-12-18T13:10:38.945Z,4.47
2022-12-18T13:13:10.986Z,5.03
2022-12-18T13:15:41.950Z,5.00
2022-12-18T13:18:19.033Z,6.20
2022-12-18T13:20:55.311Z,6.30
2022-12-18T13:23:33.776Z,6.90
2022-12-18T13:26:35.293Z,6.10
2022-12-18T13:29:05.771Z,4.70
2022-12-18T13:32:01.019Z,4.47
2022-12-18T13:34:32.235Z,5.63
2022-12-18T13:37:42.595Z,5.60
2022-12-18T13:40:56.212Z,4.27
2022-12-18T13:43:32.134Z,5.03
2022-12-18T13:46:05.147Z,5.77
2022-12-18T13:48:38.903Z,5.87
2022-12-18T13:51:12.061Z,6.73
2022-12-18T13:53:47.173Z,5.33
2022-12-18T13:56:18.261Z,4.95
2022-12-18T13:59:04.883Z,4.37
2022-12-18T14:04:12.169Z,5.30
2022-12-18T14:06:40.536Z,4.77
2022-12-18T14:09:19.001Z,5.07
2022-12-18T14:11:50.907Z,4.10
2022-12-18T14:14:21.043Z,5.33
2022-12-18T14:16:49.746Z,6.17
2022-12-18T14:19:19.437Z,4.30
2022-12-18T14:21:50.145Z,4.37
2022-12-18T14:24:20.787Z,4.27
2022-12-18T14:26:50.934Z,4.53
2022-12-18T14:29:25.983Z,4.80
2022-12-18T14:32:17.915Z,5.43
2022-12-18T14:34:48.603Z,4.23
2022-12-18T14:37:21.655Z,3.80
2022-12-18T14:40:08.732Z,5.70
2022-12-18T14:42:39.096Z,4.77
2022-12-18T14:45:43.066Z,5.20
2022-12-18T14:48:23.048Z,4.90
2022-12-18T14:51:01.677Z,5.20
2022-12-18T14:53:40.555Z,5.03
2022-12-18T14:56:21.782Z,5.77
2022-12-18T14:58:54.410Z,4.53
2022-12-18T15:01:28.332Z,4.87
2022-12-18T15:03:59.729Z,5.55
2022-12-18T15:06:32.750Z,4.43
2022-12-18T15:09:04.187Z,6.17
2022-12-18T15:11:45.854Z,4.50
2022-12-18T15:14:33.750Z,3.90
2022-12-18T15:17:07.468Z,4.20
2022-12-18T15:19:41.316Z,5.37
2022-12-18T15:22:24.333Z,6.43
2022-12-18T15:24:53.281Z,5.40
2022-12-18T15:27:30.588Z,4.10
2022-12-18T15:30:22.901Z,5.07
2022-12-18T15:33:25.633Z,5.77
2022-12-18T15:35:59.141Z,5.13
2022-12-18T15:38:27.198Z,4.20
2022-12-18T15:40:55.951Z,6.43
2022-12-18T15:43:35.264Z,3.60
2022-12-18T15:46:06.298Z,4.73
2022-12-18T15:48:40.935Z,3.53
2022-12-18T15:51:16.324Z,5.63
2022-12-18T15:53:45.696Z,5.57
2022-12-18T15:56:34.916Z,5.47
2022-12-18T15:59:08.257Z,5.90
2022-12-18T16:01:39.582Z,5.10
2022-12-18T16:04:13.269Z,6.10
2022-12-18T16:07:12.850Z,6.97
2022-12-18T16:09:30.176Z,6.80
2022-12-18T16:12:00.951Z,7.63
2022-12-18T16:14:31.097Z,6.73
2022-12-18T16:17:01.766Z,3.60
2022-12-18T16:19:31.285Z,3.50
2022-12-18T16:22:01.103Z,6.40
2022-12-18T16:24:32.380Z,5.73
2022-12-18T16:27:01.707Z,6.77
2022-12-18T16:29:30.205Z,6.50
2022-12-18T16:32:00.423Z,6.00
2022-12-18T16:34:35.392Z,5.97
2022-12-18T16:37:07.393Z,7.13
2022-12-18T16:39:37.339Z,11.13
2022-12-18T16:42:10.994Z,6.50
2022-12-18T16:44:39.014Z,7.63
2022-12-18T16:47:06.911Z,6.73
2022-12-18T16:49:39.183Z,6.73
2022-12-18T16:52:08.093Z,6.60
2022-12-18T16:54:36.528Z,6.73
2022-12-18T16:57:07.835Z,7.23
2022-12-18T16:59:35.921Z,6.90
2022-12-18T17:02:07.331Z,6.80
2022-12-18T17:04:36.087Z,5.23
2022-12-18T17:07:05.136Z,6.20
2022-12-18T17:09:32.899Z,6.07
2022-12-18T17:12:04.275Z,6.57
2022-12-18T17:14:34.558Z,4.97
2022-12-18T17:19:52.397Z,6.80
2022-12-18T17:22:23.229Z,7.40
2022-12-18T17:24:51.111Z,7.30
2022-12-18T17:27:18.823Z,6.80
2022-12-18T17:29:48.401Z,7.43
2022-12-18T17:32:17.162Z,8.07
2022-12-18T17:34:45.442Z,7.13
2022-12-18T17:37:13.870Z,7.40
2022-12-18T17:39:43.187Z,6.73
2022-12-18T17:42:15.339Z,7.77
2022-12-18T17:44:44.802Z,6.03
2022-12-18T17:47:13.702Z,5.27
2022-12-18T17:49:41.873Z,6.57
2022-12-18T17:52:10.184Z,6.73
2022-12-18T17:54:41.314Z,7.63
2022-12-18T17:57:12.118Z,7.23
2022-12-18T17:59:40.803Z,5.23
2022-12-18T18:02:11.230Z,7.70
2022-12-18T18:04:40.296Z,8.27
2022-12-18T18:07:08.095Z,7.63
2022-12-18T18:09:35.914Z,7.90
2022-12-18T18:12:22.776Z,7.80
2022-12-18T18:14:52.071Z,7.43
2022-12-18T18:17:20.383Z,8.53
2022-12-18T18:19:49.628Z,6.77
2022-12-18T18:22:18.867Z,7.77
2022-12-18T18:24:46.846Z,8.30
2022-12-18T18:27:15.068Z,7.80
2022-12-18T18:29:43.153Z,8.17
2022-12-18T18:32:12.618Z,6.83
2022-12-18T18:34:40.379Z,6.90
2022-12-18T18:37:11.878Z,8.43
2022-12-18T18:39:40.031Z,8.17
2022-12-18T18:42:07.966Z,8.70
2022-12-18T18:44:35.812Z,8.87
2022-12-18T18:47:06.923Z,7.83
2022-12-18T18:49:39.107Z,9.10
2022-12-18T18:52:07.485Z,9.47
2022-12-18T18:54:35.554Z,8.00
2022-12-18T18:57:19.883Z,8.17
2022-12-18T18:59:48.623Z,8.63
2022-12-18T19:02:17.914Z,9.30
2022-12-18T19:04:47.698Z,9.63
2022-12-18T19:07:29.458Z,9.17
2022-12-18T19:10:07.246Z,9.17
2022-12-18T19:12:53.881Z,10.10
2022-12-18T19:15:22.736Z,9.57
2022-12-18T19:17:50.856Z,9.30
2022-12-18T19:20:20.499Z,10.27
2022-12-18T19:22:55.299Z,9.33
2022-12-18T19:25:29.917Z,9.60
2022-12-18T19:28:21.524Z,10.00
2022-12-18T19:30:59.068Z,10.83
2022-12-18T19:33:44.862Z,10.03
2022-12-18T19:36:21.168Z,9.50
2022-12-18T19:38:51.434Z,10.63
2022-12-18T19:41:21.605Z,10.60
2022-12-18T19:43:50.772Z,10.50
2022-12-18T19:46:21.820Z,11.13
2022-12-18T19:48:51.180Z,11.07
2022-12-18T19:51:24.506Z,10.87
2022-12-18T19:53:58.496Z,10.97
2022-12-18T19:56:30.951Z,11.02
2022-12-18T19:58:59.437Z,12.10
2022-12-18T20:01:29.510Z,11.40
2022-12-18T20:03:58.943Z,11.33
2022-12-18T20:06:31.611Z,11.90
2022-12-18T20:09:03.609Z,12.17
2022-12-18T20:11:33.774Z,11.33
2022-12-18T20:14:06.661Z,12.95
2022-12-18T20:16:34.457Z,12.37
2022-12-18T20:19:03.091Z,13.10
2022-12-18T20:21:32.852Z,11.50
2022-12-18T20:24:01.913Z,12.40
2022-12-18T20:26:30.064Z,14.17
2022-12-18T20:28:58.119Z,13.37
2022-12-18T20:31:25.917Z,13.77
2022-12-18T20:33:59.623Z,13.60
2022-12-18T20:36:29.625Z,14.15
2022-12-18T20:39:01.776Z,13.93
2022-12-18T20:41:38.350Z,14.50
2022-12-18T20:44:21.481Z,14.48
2022-12-18T20:46:51.657Z,14.70
2022-12-18T20:49:19.613Z,15.47
2022-12-18T20:51:51.409Z,14.97
2022-12-18T20:54:21.766Z,10.57
2022-12-18T20:56:50.521Z,15.13
2022-12-18T20:59:19.555Z,11.87
2022-12-18T21:01:48.527Z,15.63
2022-12-18T21:04:18.377Z,15.03
2022-12-18T21:06:52.067Z,15.00
2022-12-18T21:09:23.730Z,14.95
2022-12-18T21:12:10.400Z,14.77
2022-12-18T21:14:43.912Z,15.10
2022-12-18T21:17:12.155Z,14.63
2022-12-18T21:19:40.157Z,15.67
2022-12-18T21:22:09.825Z,14.80
2022-12-18T21:24:38.942Z,14.97
2022-12-18T21:27:06.702Z,16.17
2022-12-18T21:29:34.973Z,17.13
2022-12-18T21:32:04.633Z,16.97
2022-12-18T21:34:33.307Z,15.27
2022-12-18T21:37:02.199Z,17.77
2022-12-18T21:39:30.733Z,18.13
2022-12-18T21:42:19.085Z,19.40
2022-12-18T21:44:49.167Z,18.57
2022-12-18T21:47:22.568Z,19.63
2022-12-18T21:49:52.765Z,18.50
2022-12-18T21:52:30.755Z,19.63
2022-12-18T21:55:08.021Z,18.90
2022-12-18T21:57:39.323Z,22.80
2022-12-18T22:00:18.859Z,25.73
2022-12-18T22:02:48.762Z,25.83
2022-12-18T22:05:36.400Z,24.17
2022-12-18T22:08:04.971Z,22.23
2022-12-18T22:10:33.074Z,27.73
2022-12-18T22:13:02.347Z,26.23
2022-12-18T22:15:30.084Z,25.87
2022-12-18T22:18:00.139Z,29.57
2022-12-18T22:20:29.738Z,30.47
2022-12-18T22:22:58.521Z,32.00
2022-12-18T22:25:26.347Z,32.70
2022-12-18T22:28:12.594Z,32.60
2022-12-18T22:30:41.698Z,29.92
2022-12-18T22:33:09.476Z,28.47
2022-12-18T22:35:37.382Z,34.13
2022-12-18T22:38:05.126Z,32.97
2022-12-18T22:40:33.202Z,30.40
2022-12-18T22:43:00.972Z,31.60
2022-12-18T22:45:28.765Z,33.20
2022-12-18T22:47:58.061Z,31.97
2022-12-18T22:50:26.046Z,29.90
2022-12-18T22:52:54.057Z,29.70
2022-12-18T22:55:21.984Z,27.23
2022-12-18T22:57:52.742Z,21.27
2022-12-18T23:00:23.907Z,29.53
2022-12-18T23:02:59.180Z,23.00
2022-12-18T23:05:31.290Z,27.45
2022-12-18T23:07:59.591Z,29.77
2022-12-18T23:10:28.373Z,25.97
2022-12-18T23:12:56.256Z,22.87
2022-12-18T23:15:28.406Z,28.77
2022-12-18T23:17:58.491Z,27.57
2022-12-18T23:20:28.156Z,26.47
2022-12-18T23:22:57.373Z,22.70
2022-12-18T23:25:25.040Z,26.63
2022-12-18T23:27:52.825Z,27.03
2022-12-18T23:30:20.689Z,30.40
2022-12-18T23:32:48.470Z,28.10
2022-12-18T23:35:17.225Z,31.43
2022-12-18T23:37:58.791Z,29.07
2022-12-18T23:40:29.963Z,34.67
2022-12-18T23:43:00.228Z,32.03
2022-12-18T23:45:28.290Z,24.30
2022-12-18T23:47:56.134Z,33.10
2022-12-18T23:50:29.026Z,27.87
2022-12-18T23:53:04.704Z,28.40
2022-12-18T23:55:39.830Z,25.08
2022-12-18T23:58:14.974Z,29.70
